Time;durP1;ratioP1;P1;durP2;ratioP2;P2;SDS_P1;SDS_P2;PMS_P1;PMS_P2;Temp;Humidity;BMP_temperature;BMP_pressure;BME280_temperature;BME280_humidity;BME280_pressure;Samples;Min_cycle;Max_cycle;Signal;HPM_P1;HPM_P2
2023/09/25 00:00:19;;;;;;;2.83;1.48;;;;;;;11.21;100.00;102067.00;1244009;23;20252;-91
2023/09/25 00:00:52;;;;;;;2.53;1.73;;;;;;;11.26;100.00;102059.28;1253784;23;20361;-91
2023/09/25 00:01:24;;;;;;;3.45;1.50;;;;;;;11.17;100.00;102060.41;1258326;23;20019;-91
2023/09/25 00:01:56;;;;;;;8.10;1.80;;;;;;;11.25;100.00;102062.97;1257981;23;20263;-91
2023/09/25 00:02:28;;;;;;;3.53;1.85;;;;;;;11.16;100.00;102053.44;1253724;23;20330;-91
2023/09/25 00:03:00;;;;;;;2.45;1.30;;;;;;;11.11;100.00;102063.84;1259713;23;20274;-91
2023/09/25 00:03:32;;;;;;;2.63;1.65;;;;;;;11.14;100.00;102053.63;1247618;23;20263;-91
2023/09/25 00:04:04;;;;;;;1.70;1.38;;;;;;;11.10;100.00;102065.69;1253839;23;20267;-91
2023/09/25 00:04:36;;;;;;;2.67;1.40;;;;;;;10.97;100.00;102059.41;1253288;23;20281;-90
2023/09/25 00:05:08;;;;;;;2.35;1.42;;;;;;;11.07;100.00;102059.91;1247744;23;20283;-90
2023/09/25 00:05:40;;;;;;;7.90;1.90;;;;;;;11.14;100.00;102066.97;1249773;23;20255;-92
2023/09/25 00:06:12;;;;;;;2.55;1.52;;;;;;;11.01;100.00;102061.50;1253323;23;20278;-90
2023/09/25 00:06:43;;;;;;;1.67;1.40;;;;;;;11.12;100.00;102061.00;1265435;23;20265;-91
2023/09/25 00:07:16;;;;;;;3.15;1.45;;;;;;;11.12;100.00;102068.16;1259603;23;20297;-91
2023/09/25 00:07:48;;;;;;;3.50;1.60;;;;;;;11.16;100.00;102064.09;1259196;23;20299;-92
2023/09/25 00:08:20;;;;;;;6.93;1.63;;;;;;;11.09;100.00;102065.88;1253283;23;20275;-91
2023/09/25 00:08:52;;;;;;;2.88;1.60;;;;;;;11.12;100.00;102068.16;1253662;23;20271;-91
2023/09/25 00:09:23;;;;;;;1.95;1.65;;;;;;;10.97;100.00;102070.06;1265750;23;20277;-91
2023/09/25 00:09:55;;;;;;;4.07;1.40;;;;;;;10.93;100.00;102069.59;1259242;23;20274;-91
2023/09/25 00:10:28;;;;;;;2.75;1.95;;;;;;;10.78;100.00;102066.97;1259593;23;20281;-92
2023/09/25 00:10:59;;;;;;;4.97;1.98;;;;;;;10.48;100.00;102068.03;1253791;23;20286;-92
2023/09/25 00:11:31;;;;;;;1.65;1.30;;;;;;;10.51;100.00;102065.84;1253534;23;20282;-91
2023/09/25 00:12:05;;;;;;;2.88;1.83;;;;;;;10.58;100.00;102065.09;1253515;23;20766;-91
2023/09/25 00:12:37;;;;;;;2.15;1.40;;;;;;;10.66;100.00;102063.13;1253794;23;20274;-91
2023/09/25 00:13:09;;;;;;;3.55;1.52;;;;;;;10.68;100.00;102065.59;1265744;23;20261;-91
2023/09/25 00:13:40;;;;;;;3.25;1.52;;;;;;;10.55;100.00;102071.63;1253518;23;20306;-91
2023/09/25 00:14:13;;;;;;;3.15;1.65;;;;;;;10.57;100.00;102064.25;1247968;23;20275;-92
2023/09/25 00:14:45;;;;;;;4.95;1.98;;;;;;;10.66;100.00;102065.78;1253899;23;20287;-92
2023/09/25 00:15:17;;;;;;;4.22;2.05;;;;;;;10.79;100.00;102065.97;1267864;23;20609;-91
2023/09/25 00:15:48;;;;;;;3.03;1.80;;;;;;;10.90;100.00;102067.31;1253131;23;20266;-91
2023/09/25 00:16:21;;;;;;;6.32;1.65;;;;;;;10.90;100.00;102074.47;1253685;23;20271;-91
2023/09/25 00:16:52;;;;;;;2.17;1.73;;;;;;;10.91;100.00;102062.81;1253551;23;20285;-91
2023/09/25 00:17:24;;;;;;;4.50;2.45;;;;;;;10.92;100.00;102067.13;1253583;23;20753;-91
2023/09/25 00:17:57;;;;;;;2.50;1.48;;;;;;;10.90;100.00;102069.16;1249697;23;20262;-90
2023/09/25 00:18:30;;;;;;;2.60;1.35;;;;;;;10.92;100.00;102061.78;1255746;23;20270;-91
2023/09/25 00:19:01;;;;;;;1.75;1.65;;;;;;;10.89;100.00;102071.00;1255808;23;20265;-91
2023/09/25 00:19:35;;;;;;;1.77;1.58;;;;;;;10.92;100.00;102077.78;1253834;23;20278;-91
2023/09/25 00:20:10;;;;;;;5.53;1.85;;;;;;;10.86;100.00;102073.22;1259685;23;20274;-91
2023/09/25 00:20:42;;;;;;;3.22;1.88;;;;;;;10.82;100.00;102064.75;1255800;23;20255;-91
2023/09/25 00:21:14;;;;;;;2.03;1.42;;;;;;;10.77;100.00;102069.84;1255667;23;20262;-91
2023/09/25 00:21:46;;;;;;;3.78;1.48;;;;;;;10.77;100.00;102069.84;1247936;23;20330;-90
2023/09/25 00:22:17;;;;;;;7.10;1.83;;;;;;;10.80;100.00;102074.78;1259892;23;20271;-92
2023/09/25 00:22:49;;;;;;;2.28;1.48;;;;;;;10.83;100.00;102074.41;1259433;23;20427;-91
2023/09/25 00:23:20;;;;;;;3.80;1.65;;;;;;;10.83;100.00;102080.56;1247966;23;20759;-91
2023/09/25 00:23:52;;;;;;;2.22;1.45;;;;;;;10.83;100.00;102075.25;1259245;23;20277;-91
2023/09/25 00:24:24;;;;;;;7.45;1.70;;;;;;;10.80;100.00;102074.78;1253799;23;20642;-91
2023/09/25 00:24:56;;;;;;;2.05;1.88;;;;;;;10.77;100.00;102075.16;1253602;23;20319;-91
2023/09/25 00:25:28;;;;;;;1.60;1.27;;;;;;;10.78;100.00;102066.97;1259469;23;20266;-91
2023/09/25 00:26:02;;;;;;;4.22;1.77;;;;;;;10.72;100.00;102075.75;1241844;23;20269;-91
2023/09/25 00:26:34;;;;;;;3.47;1.90;;;;;;;10.65;100.00;102077.47;1253727;23;20274;-91
2023/09/25 00:27:06;;;;;;;7.53;1.80;;;;;;;10.56;100.00;102081.25;1253697;23;20407;-91
2023/09/25 00:27:38;;;;;;;2.83;1.52;;;;;;;10.46;100.00;102073.56;1253815;23;20270;-92
2023/09/25 00:28:11;;;;;;;1.65;1.55;;;;;;;10.38;100.00;102086.13;1247687;23;20275;-91
2023/09/25 00:28:42;;;;;;;2.13;1.60;;;;;;;10.31;100.00;102080.72;1259637;23;20274;-92
2023/09/25 00:29:14;;;;;;;2.38;1.20;;;;;;;10.28;100.00;102082.94;1247113;23;20347;-90
2023/09/25 00:29:46;;;;;;;2.92;1.60;;;;;;;10.16;100.00;102088.69;1259732;23;20374;-92
2023/09/25 00:30:18;;;;;;;2.45;1.90;;;;;;;10.03;100.00;102082.31;1271757;23;20272;-91
2023/09/25 00:30:50;;;;;;;3.25;1.92;;;;;;;9.94;100.00;102084.25;1247924;23;20268;-92
2023/09/25 00:31:21;;;;;;;2.42;1.77;;;;;;;9.97;100.00;102089.22;1247903;23;20274;-91
2023/09/25 00:31:53;;;;;;;1.83;1.40;;;;;;;9.98;100.00;102082.88;1253819;23;20365;-92
2023/09/25 00:32:25;;;;;;;2.75;1.42;;;;;;;9.95;100.00;102085.91;1253795;23;20419;-90
2023/09/25 00:32:57;;;;;;;3.10;1.50;;;;;;;9.96;100.00;102089.41;1247978;23;20275;-91
2023/09/25 00:33:28;;;;;;;1.40;1.33;;;;;;;9.94;100.00;102094.91;1249979;23;20310;-92
2023/09/25 00:34:00;;;;;;;2.20;1.08;;;;;;;9.89;100.00;102094.63;1259574;23;20743;-92
2023/09/25 00:34:32;;;;;;;3.95;1.50;;;;;;;9.76;100.00;102091.72;1247490;23;20272;-92
2023/09/25 00:35:10;;;;;;;2.97;1.70;;;;;;;9.92;100.00;102094.25;1248133;23;20276;-92
2023/09/25 00:35:44;;;;;;;1.55;1.10;;;;;;;10.17;100.00;102095.66;1247821;23;20280;-92
2023/09/25 00:36:16;;;;;;;5.50;2.03;;;;;;;10.10;100.00;102088.56;1253742;23;20286;-92
2023/09/25 00:36:48;;;;;;;6.38;1.70;;;;;;;10.17;100.00;102085.00;1247782;23;20581;-91
2023/09/25 00:37:21;;;;;;;2.00;1.38;;;;;;;10.28;100.00;102088.25;1253901;23;20275;-91
2023/09/25 00:37:52;;;;;;;11.10;1.80;;;;;;;10.33;100.00;102085.88;1255805;23;20263;-91
2023/09/25 00:38:24;;;;;;;7.95;2.72;;;;;;;10.36;100.00;102090.81;1255462;23;20310;-91
2023/09/25 00:38:56;;;;;;;3.88;1.73;;;;;;;10.31;100.00;102093.22;1248710;23;20664;-91
2023/09/25 00:39:28;;;;;;;5.32;1.77;;;;;;;10.17;100.00;102095.66;1248545;23;20276;-91
2023/09/25 00:40:03;;;;;;;1.50;1.15;;;;;;;10.16;100.00;102096.69;1253745;23;20267;-91
2023/09/25 00:40:36;;;;;;;2.90;1.80;;;;;;;10.16;100.00;102094.00;1259850;23;20286;-91
2023/09/25 00:41:09;;;;;;;2.10;1.52;;;;;;;10.08;100.00;102094.06;1253493;23;20279;-91
2023/09/25 00:41:40;;;;;;;4.10;1.70;;;;;;;10.04;100.00;102089.31;1253422;23;20887;-91
2023/09/25 00:42:12;;;;;;;3.60;1.17;;;;;;;10.00;100.00;102088.03;1261731;23;20259;-91
2023/09/25 00:42:49;;;;;;;3.50;1.77;;;;;;;10.04;100.00;102090.13;1253842;23;20275;-92
2023/09/25 00:43:21;;;;;;;4.95;1.60;;;;;;;9.96;100.00;102098.19;1261144;23;20278;-91
2023/09/25 00:43:52;;;;;;;4.80;1.50;;;;;;;9.87;100.00;102100.13;1253803;23;20286;-92
2023/09/25 00:44:24;;;;;;;1.63;1.40;;;;;;;9.73;100.00;102087.59;1247891;23;20283;-92
2023/09/25 00:44:55;;;;;;;2.90;2.13;;;;;;;9.63;100.00;102091.53;1253917;23;20274;-91
2023/09/25 00:45:28;;;;;;;3.20;1.90;;;;;;;9.58;100.00;102100.84;1250003;23;20263;-91
2023/09/25 00:46:00;;;;;;;2.17;1.55;;;;;;;9.51;100.00;102091.94;1247766;23;20624;-91
2023/09/25 00:46:32;;;;;;;1.92;1.50;;;;;;;9.52;100.00;102088.25;1253598;23;20271;-91
2023/09/25 00:47:08;;;;;;;1.75;1.60;;;;;;;9.57;100.00;102091.22;1253766;23;20271;-92
2023/09/25 00:47:41;;;;;;;1.48;1.15;;;;;;;9.62;100.00;102095.19;1253867;23;20274;-92
2023/09/25 00:48:26;;;;;;;4.50;2.03;;;;;;;9.58;100.00;102089.38;1255968;23;20342;-92
2023/09/25 00:48:58;;;;;;;1.95;1.80;;;;;;;9.61;100.00;102091.72;1249672;23;20700;-92
2023/09/25 00:49:31;;;;;;;2.20;1.23;;;;;;;9.53;100.00;102089.91;1259422;23;20263;-91
2023/09/25 00:50:04;;;;;;;1.85;1.40;;;;;;;9.54;100.00;102088.91;1247875;23;20582;-91
2023/09/25 00:50:35;;;;;;;1.60;1.35;;;;;;;9.52;100.00;102085.59;1247887;23;20323;-92
2023/09/25 00:51:07;;;;;;;1.63;1.40;;;;;;;9.45;100.00;102090.00;1253752;23;20278;-91
2023/09/25 00:51:39;;;;;;;4.10;1.75;;;;;;;9.66;100.00;102084.00;1250049;23;20324;-91
2023/09/25 00:52:12;;;;;;;1.15;1.10;;;;;;;9.84;100.00;102084.50;1244098;23;20256;-91
2023/09/25 00:52:44;;;;;;;2.08;1.40;;;;;;;9.96;100.00;102086.72;1242107;23;20273;-91
2023/09/25 00:53:16;;;;;;;5.13;1.40;;;;;;;9.91;100.00;102081.97;1253545;23;20790;-91
2023/09/25 00:53:48;;;;;;;2.25;1.27;;;;;;;9.95;100.00;102080.59;1253611;23;20274;-91
2023/09/25 00:54:20;;;;;;;4.10;1.50;;;;;;;10.11;100.00;102075.06;1255978;23;20259;-92
2023/09/25 00:55:12;;;;;;;;;;;;;;;10.15;100.00;102076.38;1260168;23;20299;-91
2023/09/25 00:55:44;;;;;;;2.17;1.77;;;;;;;10.12;100.00;102076.72;1242031;23;19918;-91
2023/09/25 00:56:16;;;;;;;2.30;1.63;;;;;;;10.12;100.00;102079.38;1253683;23;20275;-91
2023/09/25 00:56:48;;;;;;;4.95;2.10;;;;;;;10.16;100.00;102075.38;1247616;23;20268;-92
2023/09/25 00:57:20;;;;;;;3.80;1.50;;;;;;;10.19;100.00;102072.34;1241827;23;20268;-92
2023/09/25 00:57:52;;;;;;;1.88;1.17;;;;;;;10.17;100.00;102069.03;1253879;23;20271;-91
2023/09/25 00:58:24;;;;;;;6.97;2.08;;;;;;;9.99;100.00;102078.38;1253633;23;20735;-91
2023/09/25 00:58:56;;;;;;;2.53;1.92;;;;;;;9.89;100.00;102079.47;1253533;23;20274;-90
2023/09/25 00:59:28;;;;;;;4.65;2.05;;;;;;;10.01;100.00;102069.19;1253505;23;20271;-91
2023/09/25 01:00:04;;;;;;;5.45;1.77;;;;;;;10.07;100.00;102081.78;1259219;23;20417;-91
2023/09/25 01:00:36;;;;;;;2.67;1.80;;;;;;;10.20;100.00;102068.69;1259691;23;20273;-92
2023/09/25 01:01:08;;;;;;;7.20;1.90;;;;;;;10.20;100.00;102078.50;1253029;23;20268;-91
2023/09/25 01:01:40;;;;;;;5.68;2.20;;;;;;;10.13;100.00;102075.72;1247602;23;20280;-91
2023/09/25 01:02:12;;;;;;;4.10;1.85;;;;;;;10.13;100.00;102073.06;1259575;23;20278;-91
2023/09/25 01:02:43;;;;;;;2.05;1.90;;;;;;;10.13;100.00;102075.72;1253621;23;20326;-91
2023/09/25 01:03:15;;;;;;;10.82;2.65;;;;;;;10.26;100.00;102071.63;1253697;23;20274;-92
2023/09/25 01:03:47;;;;;;;3.45;2.05;;;;;;;10.09;100.00;102071.78;1253712;23;20329;-91
2023/09/25 01:04:20;;;;;;;2.30;2.10;;;;;;;9.86;100.00;102071.00;1247494;23;20334;-91
2023/09/25 01:04:52;;;;;;;2.45;1.90;;;;;;;9.94;100.00;102062.97;1253850;23;20270;-92
2023/09/25 01:05:24;;;;;;;1.58;1.48;;;;;;;9.97;100.00;102067.91;1247895;23;20280;-91
2023/09/25 01:05:56;;;;;;;2.25;1.60;;;;;;;9.83;100.00;102071.38;1255640;23;20282;-91
2023/09/25 01:06:28;;;;;;;2.67;1.63;;;;;;;9.64;100.00;102074.56;1259730;23;20746;-92
2023/09/25 01:07:00;;;;;;;2.95;1.60;;;;;;;9.66;100.00;102069.88;1247490;23;20279;-91
2023/09/25 01:07:32;;;;;;;2.20;1.88;;;;;;;9.80;100.00;102074.41;1247564;23;20275;-91
2023/09/25 01:08:05;;;;;;;4.60;2.47;;;;;;;9.83;100.00;102071.38;1248202;23;20350;-91
2023/09/25 01:08:37;;;;;;;2.15;1.80;;;;;;;9.62;100.00;102071.25;1259374;23;20266;-91
2023/09/25 01:09:09;;;;;;;1.63;1.52;;;;;;;9.86;100.00;102071.00;1253476;23;20354;-91
2023/09/25 01:09:41;;;;;;;2.05;1.52;;;;;;;9.93;100.00;102071.13;1253566;23;20278;-92
2023/09/25 01:10:15;;;;;;;4.50;1.75;;;;;;;9.99;100.00;102063.22;1253657;23;20254;-91
2023/09/25 01:10:47;;;;;;;3.15;2.00;;;;;;;10.03;100.00;102075.16;1253645;23;20271;-91
2023/09/25 01:11:18;;;;;;;3.10;2.15;;;;;;;9.96;100.00;102065.44;1253465;23;20604;-91
2023/09/25 01:11:50;;;;;;;2.70;2.08;;;;;;;10.07;100.00;102071.13;1259469;23;20335;-92
2023/09/25 01:12:22;;;;;;;2.85;1.88;;;;;;;10.00;100.00;102077.38;1259572;23;20588;-91
2023/09/25 01:12:54;;;;;;;3.15;1.48;;;;;;;9.95;100.00;102074.44;1249806;23;20327;-91
2023/09/25 01:13:26;;;;;;;4.75;2.53;;;;;;;9.87;100.00;102072.69;1241890;23;20272;-91
2023/09/25 01:13:58;;;;;;;2.63;2.03;;;;;;;9.96;100.00;102073.44;1255942;23;20278;-91
2023/09/25 01:14:30;;;;;;;4.88;2.70;;;;;;;10.07;100.00;102062.31;1253699;23;20785;-91
2023/09/25 01:15:02;;;;;;;3.47;1.90;;;;;;;10.09;100.00;102071.78;1241894;23;20733;-91
2023/09/25 01:15:34;;;;;;;2.95;1.70;;;;;;;10.06;100.00;102072.13;1247389;23;20303;-91
2023/09/25 01:16:06;;;;;;;9.05;2.17;;;;;;;10.00;100.00;102078.19;1247753;23;20286;-91
2023/09/25 01:16:38;;;;;;;2.72;2.17;;;;;;;10.14;100.00;102072.06;1253564;23;20263;-91
2023/09/25 01:17:10;;;;;;;2.22;1.90;;;;;;;10.25;100.00;102065.47;1253276;23;20433;-91
2023/09/25 01:17:43;;;;;;;6.38;2.53;;;;;;;10.16;100.00;102070.06;1255471;23;20333;-91
2023/09/25 01:18:14;;;;;;;5.03;2.00;;;;;;;10.26;100.00;102066.31;1243748;23;20710;-91
2023/09/25 01:18:47;;;;;;;3.58;2.13;;;;;;;10.07;100.00;102073.78;1253441;23;20285;-91
2023/09/25 01:19:19;;;;;;;4.13;2.67;;;;;;;10.15;100.00;102073.72;1259080;23;20277;-91
2023/09/25 01:19:51;;;;;;;2.47;2.25;;;;;;;10.23;100.00;102077.34;1253774;23;20279;-90
2023/09/25 01:20:23;;;;;;;3.45;2.30;;;;;;;10.22;100.00;102076.50;1259533;23;20277;-91
2023/09/25 01:20:55;;;;;;;3.22;1.92;;;;;;;10.13;100.00;102072.22;1253456;23;20275;-90
2023/09/25 01:21:27;;;;;;;2.42;1.85;;;;;;;9.96;100.00;102066.25;1253826;23;20322;-91
2023/09/25 01:21:58;;;;;;;4.07;1.95;;;;;;;10.13;100.00;102070.38;1259660;23;20627;-91
2023/09/25 01:22:30;;;;;;;5.20;2.90;;;;;;;10.14;100.00;102073.91;1259203;23;20274;-91
2023/09/25 01:23:02;;;;;;;2.75;2.47;;;;;;;10.10;100.00;102070.75;1253729;23;20394;-90
2023/09/25 01:23:33;;;;;;;4.32;2.25;;;;;;;10.05;100.00;102070.50;1247797;23;20732;-91
2023/09/25 01:24:05;;;;;;;3.28;2.67;;;;;;;10.09;100.00;102070.94;1253121;23;20275;-91
2023/09/25 01:24:37;;;;;;;3.20;2.83;;;;;;;10.23;100.00;102080.00;1259328;23;20786;-90
2023/09/25 01:25:12;;;;;;;3.72;2.03;;;;;;;10.18;100.00;102070.69;1247661;23;20268;-91
2023/09/25 01:25:43;;;;;;;2.33;2.13;;;;;;;10.14;100.00;102074.75;1255293;23;20263;-91
2023/09/25 01:26:15;;;;;;;4.30;2.58;;;;;;;10.11;100.00;102069.75;1258984;23;20321;-90
2023/09/25 01:26:47;;;;;;;2.53;2.33;;;;;;;10.25;100.00;102076.13;1253450;23;20270;-92
2023/09/25 01:27:19;;;;;;;2.70;2.05;;;;;;;10.29;100.00;102065.94;1253333;23;20271;-91
2023/09/25 01:27:51;;;;;;;3.05;2.42;;;;;;;10.29;100.00;102076.59;1247220;23;20280;-91
2023/09/25 01:28:22;;;;;;;3.30;2.38;;;;;;;10.28;100.00;102072.28;1253530;23;20345;-91
2023/09/25 01:28:54;;;;;;;5.35;2.80;;;;;;;10.27;100.00;102078.63;1247772;23;20427;-90
2023/09/25 01:29:25;;;;;;;2.60;2.40;;;;;;;10.30;100.00;102079.06;1253542;23;20754;-91
2023/09/25 01:30:01;;;;;;;2.85;2.45;;;;;;;10.27;100.00;102073.28;1253466;23;20274;-91
2023/09/25 01:30:32;;;;;;;5.15;2.75;;;;;;;10.20;100.00;102073.16;1253339;23;20733;-91
2023/09/25 01:31:07;;;;;;;3.78;2.70;;;;;;;10.17;100.00;102069.03;1247551;23;20645;-91
2023/09/25 01:31:38;;;;;;;4.60;2.60;;;;;;;10.25;100.00;102072.66;1253282;23;20273;-91
2023/09/25 01:32:11;;;;;;;3.55;2.40;;;;;;;10.28;100.00;102070.44;1253540;23;20282;-91
2023/09/25 01:32:44;;;;;;;2.40;2.17;;;;;;;10.24;100.00;102078.97;1247185;23;20582;-91
2023/09/25 01:33:17;;;;;;;4.50;2.33;;;;;;;10.23;100.00;102072.84;1246965;23;20761;-91
2023/09/25 01:33:49;;;;;;;4.85;1.90;;;;;;;10.12;100.00;102076.72;1253886;23;20277;-91
2023/09/25 01:34:23;;;;;;;4.65;2.75;;;;;;;10.00;100.00;102077.38;1253379;23;20293;-91
2023/09/25 01:34:54;;;;;;;2.80;2.45;;;;;;;10.00;100.00;102072.03;1253466;23;20278;-91
2023/09/25 01:35:27;;;;;;;3.33;3.00;;;;;;;9.97;100.00;102078.56;1259548;23;20274;-91
2023/09/25 01:35:59;;;;;;;3.10;2.85;;;;;;;9.87;100.00;102078.00;1253599;23;20274;-91
2023/09/25 01:36:30;;;;;;;2.92;2.40;;;;;;;9.97;100.00;102072.41;1255171;23;20325;-91
2023/09/25 01:37:05;;;;;;;3.42;2.30;;;;;;;9.90;100.00;102080.31;1253500;23;20351;-91
2023/09/25 01:37:36;;;;;;;2.63;2.13;;;;;;;9.90;100.00;102069.66;1253353;23;20660;-92
2023/09/25 01:38:08;;;;;;;3.33;2.28;;;;;;;9.91;100.00;102079.28;1241387;23;20280;-91
2023/09/25 01:38:40;;;;;;;9.57;2.30;;;;;;;10.03;100.00;102077.81;1253682;23;20326;-91
2023/09/25 01:39:11;;;;;;;1.80;1.70;;;;;;;9.93;100.00;102077.28;1247786;23;20268;-91
2023/09/25 01:39:43;;;;;;;6.05;2.70;;;;;;;9.93;100.00;102077.28;1253106;23;20600;-91
2023/09/25 01:40:18;;;;;;;4.13;2.70;;;;;;;9.95;100.00;102080.59;1259578;23;20277;-91
2023/09/25 01:40:50;;;;;;;4.45;2.58;;;;;;;9.82;100.00;102075.03;1247881;23;20746;-92
2023/09/25 01:41:22;;;;;;;4.22;2.22;;;;;;;9.72;100.00;102075.31;1247717;23;20333;-91
2023/09/25 01:41:54;;;;;;;3.45;2.10;;;;;;;9.74;100.00;102073.28;1253538;23;20271;-92
2023/09/25 01:42:25;;;;;;;2.55;2.33;;;;;;;9.66;100.00;102076.03;1253750;23;20298;-91
2023/09/25 01:42:59;;;;;;;5.05;3.60;;;;;;;9.79;100.00;102075.41;1253678;23;20278;-91
2023/09/25 01:43:31;;;;;;;3.08;2.42;;;;;;;9.88;100.00;102074.34;1259584;23;20270;-91
2023/09/25 01:44:03;;;;;;;3.03;2.47;;;;;;;9.72;100.00;102075.31;1253844;23;20361;-92
2023/09/25 01:44:35;;;;;;;2.53;2.33;;;;;;;9.68;100.00;102073.19;1253565;23;20269;-91
2023/09/25 01:45:11;;;;;;;2.67;2.10;;;;;;;9.67;100.00;102071.53;1247799;23;20286;-91
2023/09/25 01:45:43;;;;;;;4.13;2.75;;;;;;;9.72;100.00;102074.47;1253817;23;20639;-92
2023/09/25 01:46:15;;;;;;;3.80;2.00;;;;;;;9.66;100.00;102076.03;1241979;23;20283;-91
2023/09/25 01:46:46;;;;;;;4.72;2.30;;;;;;;9.66;100.00;102072.53;1247649;23;20268;-92
2023/09/25 01:47:18;;;;;;;3.17;2.40;;;;;;;9.39;100.00;102073.94;1249886;23;20247;-91
2023/09/25 01:47:53;;;;;;;3.83;2.75;;;;;;;9.46;100.00;102074.88;1255589;23;20600;-91
2023/09/25 01:48:25;;;;;;;3.13;2.40;;;;;;;9.48;100.00;102079.00;1253748;23;20322;-91
2023/09/25 01:48:57;;;;;;;3.88;2.38;;;;;;;9.44;100.00;102075.03;1253934;23;20346;-92
2023/09/25 01:49:30;;;;;;;2.15;1.95;;;;;;;9.36;100.00;102069.78;1247931;23;20283;-91
2023/09/25 01:50:03;;;;;;;2.45;2.25;;;;;;;9.53;100.00;102071.31;1241947;23;20283;-91
2023/09/25 01:50:36;;;;;;;2.95;2.50;;;;;;;9.48;100.00;102072.84;1249802;23;20259;-91
2023/09/25 01:51:10;;;;;;;4.85;2.33;;;;;;;9.65;100.00;102068.22;1259639;23;20275;-87
2023/09/25 01:51:44;;;;;;;6.05;2.20;;;;;;;9.79;100.00;102070.09;1259302;23;20266;-87
2023/09/25 01:52:17;;;;;;;5.93;2.25;;;;;;;9.80;100.00;102072.56;1247622;23;20736;-87
2023/09/25 01:52:55;;;;;;;3.13;2.10;;;;;;;9.88;100.00;102069.00;1255804;23;20310;-87
2023/09/25 01:53:27;;;;;;;2.97;2.60;;;;;;;9.78;100.00;102074.56;1253202;23;20267;-88
2023/09/25 01:53:58;;;;;;;2.75;2.53;;;;;;;9.75;100.00;102074.13;1253850;23;20274;-87
2023/09/25 01:54:30;;;;;;;3.67;2.65;;;;;;;9.81;100.00;102063.56;1253407;23;20266;-87
2023/09/25 01:55:03;;;;;;;2.67;2.47;;;;;;;9.90;100.00;102070.50;1253238;23;20270;-87
2023/09/25 01:55:36;;;;;;;8.90;2.97;;;;;;;9.86;100.00;102066.53;1259530;23;20762;-87
2023/09/25 01:56:14;;;;;;;3.28;2.80;;;;;;;9.93;100.00;102061.31;1253497;23;20624;-87
2023/09/25 01:56:46;;;;;;;2.80;2.03;;;;;;;9.99;100.00;102065.91;1253474;23;20283;-87
2023/09/25 01:57:18;;;;;;;3.38;2.28;;;;;;;9.97;100.00;102067.91;1259440;23;20266;-87
2023/09/25 01:57:49;;;;;;;6.03;3.00;;;;;;;9.90;100.00;102069.66;1259561;23;20270;-87
2023/09/25 01:58:22;;;;;;;2.65;2.38;;;;;;;9.87;100.00;102070.84;1265353;23;20274;-87
2023/09/25 01:58:56;;;;;;;2.55;2.35;;;;;;;9.83;100.00;102066.03;1253433;23;20275;-88
2023/09/25 01:59:28;;;;;;;3.80;2.13;;;;;;;9.63;100.00;102065.75;1247741;23;20275;-87
2023/09/25 02:00:00;;;;;;;2.15;1.95;;;;;;;9.75;100.00;102066.13;1259440;23;20377;-87
2023/09/25 02:00:31;;;;;;;2.75;2.22;;;;;;;9.81;100.00;102068.06;1253675;23;20695;-87
2023/09/25 02:01:03;;;;;;;2.70;2.17;;;;;;;9.90;100.00;102056.34;1259753;23;20266;-87
2023/09/25 02:01:36;;;;;;;2.35;2.15;;;;;;;9.72;100.00;102062.00;1255638;23;20604;-87
2023/09/25 02:02:07;;;;;;;2.90;2.40;;;;;;;9.73;100.00;102065.50;1253432;23;20271;-87
2023/09/25 02:02:42;;;;;;;2.50;2.30;;;;;;;9.88;100.00;102069.00;1253622;23;20281;-87
2023/09/25 02:03:14;;;;;;;5.07;2.95;;;;;;;9.89;100.00;102062.69;1247619;23;20271;-87
2023/09/25 02:03:47;;;;;;;4.72;2.75;;;;;;;9.78;100.00;102065.78;1253418;23;20281;-87
2023/09/25 02:04:19;;;;;;;3.92;2.17;;;;;;;9.80;100.00;102061.91;1255505;23;20259;-87
2023/09/25 02:04:51;;;;;;;2.63;2.38;;;;;;;9.79;100.00;102060.25;1259584;23;20640;-87
2023/09/25 02:05:23;;;;;;;5.10;2.78;;;;;;;9.77;100.00;102067.59;1252846;23;20274;-87
2023/09/25 02:05:56;;;;;;;6.05;2.00;;;;;;;9.78;100.00;102060.44;1253529;23;20278;-87
2023/09/25 02:06:30;;;;;;;3.08;2.78;;;;;;;9.90;100.00;102059.84;1247646;23;20259;-87
2023/09/25 02:07:01;;;;;;;3.53;1.80;;;;;;;9.90;100.00;102061.69;1241785;23;20287;-87
2023/09/25 02:07:33;;;;;;;3.78;2.42;;;;;;;9.93;100.00;102053.31;1247467;23;20282;-87
2023/09/25 02:08:05;;;;;;;5.82;2.03;;;;;;;9.89;100.00;102055.53;1259574;23;20703;-87
2023/09/25 02:08:36;;;;;;;3.72;2.17;;;;;;;9.96;100.00;102058.28;1259468;23;20843;-87
2023/09/25 02:09:10;;;;;;;5.40;2.15;;;;;;;9.89;100.00;102054.69;1253320;23;20277;-87
2023/09/25 02:09:42;;;;;;;3.70;2.30;;;;;;;9.77;100.00;102064.13;1256012;23;20258;-87
2023/09/25 02:10:14;;;;;;;2.75;1.85;;;;;;;9.67;100.00;102063.56;1259535;23;20281;-87
2023/09/25 02:10:46;;;;;;;3.42;2.88;;;;;;;9.83;100.00;102066.03;1262684;23;20254;-87
2023/09/25 02:11:19;;;;;;;4.55;2.55;;;;;;;9.86;100.00;102065.69;1253416;23;20271;-87
2023/09/25 02:11:50;;;;;;;2.70;2.40;;;;;;;9.90;100.00;102061.69;1247830;23;20581;-87
2023/09/25 02:12:22;;;;;;;2.92;2.00;;;;;;;9.94;100.00;102065.63;1247493;23;20274;-87
2023/09/25 02:12:54;;;;;;;3.35;2.13;;;;;;;10.02;100.00;102065.53;1253547;23;20271;-87
2023/09/25 02:13:26;;;;;;;3.22;2.78;;;;;;;9.82;100.00;102065.22;1247765;23;20283;-87
2023/09/25 02:13:57;;;;;;;3.70;2.05;;;;;;;9.90;100.00;102059.00;1247396;23;20271;-87
2023/09/25 02:14:29;;;;;;;4.13;2.38;;;;;;;9.85;100.00;102058.72;1247666;23;20617;-87
2023/09/25 02:15:04;;;;;;;5.05;2.28;;;;;;;10.00;100.00;102059.56;1247674;23;20267;-87
2023/09/25 02:15:35;;;;;;;7.68;3.28;;;;;;;10.01;100.00;102063.06;1247540;23;20407;-87
2023/09/25 02:16:07;;;;;;;2.38;2.17;;;;;;;10.04;100.00;102062.69;1247517;23;20279;-87
2023/09/25 02:16:39;;;;;;;2.50;2.20;;;;;;;10.04;100.00;102060.84;1259237;23;20739;-87
2023/09/25 02:17:11;;;;;;;2.60;2.40;;;;;;;10.07;100.00;102063.13;1259538;23;20267;-87
2023/09/25 02:17:43;;;;;;;7.25;2.45;;;;;;;10.09;100.00;102055.78;1241655;23;20282;-87
2023/09/25 02:18:14;;;;;;;3.03;2.03;;;;;;;10.02;100.00;102062.03;1250406;23;20379;-87
2023/09/25 02:18:46;;;;;;;3.30;2.38;;;;;;;10.05;100.00;102059.84;1253547;23;20302;-87
2023/09/25 02:19:18;;;;;;;2.60;1.98;;;;;;;10.06;100.00;102071.31;1259279;23;20273;-87
2023/09/25 02:19:50;;;;;;;3.35;2.30;;;;;;;10.08;100.00;102070.13;1253454;23;20894;-88
2023/09/25 02:20:23;;;;;;;4.68;2.35;;;;;;;9.99;100.00;102063.22;1253563;23;20286;-87
2023/09/25 02:20:55;;;;;;;6.18;2.30;;;;;;;9.98;100.00;102058.91;1255403;23;20573;-87
2023/09/25 02:21:26;;;;;;;2.80;1.92;;;;;;;10.06;100.00;102060.66;1247646;23;20272;-87
2023/09/25 02:21:58;;;;;;;3.13;2.72;;;;;;;9.91;100.00;102060.66;1250240;23;20255;-87
2023/09/25 02:22:29;;;;;;;1.63;1.52;;;;;;;9.96;100.00;102060.94;1253357;23;20270;-87
2023/09/25 02:23:02;;;;;;;2.47;2.05;;;;;;;10.03;100.00;102061.84;1259382;23;20337;-87
2023/09/25 02:23:33;;;;;;;2.88;2.22;;;;;;;10.00;100.00;102056.91;1247585;23;20268;-87
2023/09/25 02:24:05;;;;;;;2.35;2.13;;;;;;;9.93;100.00;102058.66;1247389;23;20613;-87
2023/09/25 02:24:39;;;;;;;4.15;1.83;;;;;;;10.03;100.00;102063.69;1253582;23;20357;-87
2023/09/25 02:25:11;;;;;;;3.85;2.15;;;;;;;10.07;100.00;102063.13;1253573;23;20608;-87
2023/09/25 02:25:42;;;;;;;5.35;2.30;;;;;;;9.93;100.00;102058.66;1253408;23;20281;-87
2023/09/25 02:26:14;;;;;;;4.65;2.33;;;;;;;9.93;100.00;102055.97;1253469;23;20275;-87
2023/09/25 02:26:45;;;;;;;6.32;2.33;;;;;;;9.93;100.00;102053.31;1241830;23;20677;-87
2023/09/25 02:27:17;;;;;;;6.05;2.10;;;;;;;10.02;100.00;102052.22;1259609;23;20274;-86
2023/09/25 02:27:49;;;;;;;2.83;2.25;;;;;;;10.16;100.00;102055.91;1259341;23;20266;-87
2023/09/25 02:28:21;;;;;;;7.75;2.42;;;;;;;10.18;100.00;102052.06;1247704;23;20267;-87
2023/09/25 02:28:52;;;;;;;3.35;2.50;;;;;;;10.24;100.00;102053.19;1259089;23;20767;-87
2023/09/25 02:29:24;;;;;;;8.23;2.50;;;;;;;10.22;100.00;102049.88;1253386;23;20885;-87
2023/09/25 02:29:56;;;;;;;3.22;2.20;;;;;;;10.29;100.00;102050.78;1247802;23;20280;-87